sensor_id;sensor_type;location;lat;lon;timestamp;P1;durP1;ratioP1;P2;durP2;ratioP2
50379;SDS011;37474;59.468;18.040;2022-12-29T00:01:24;16.50;;;2.83;;
50379;SDS011;37474;59.468;18.040;2022-12-29T00:03:53;36.87;;;4.00;;
50379;SDS011;37474;59.468;18.040;2022-12-29T00:06:21;4.37;;;2.80;;
50379;SDS011;37474;59.468;18.040;2022-12-29T00:08:49;7.30;;;4.00;;
50379;SDS011;37474;59.468;18.040;2022-12-29T00:11:17;21.53;;;5.83;;
50379;SDS011;37474;59.468;18.040;2022-12-29T00:13:46;49.67;;;5.77;;
50379;SDS011;37474;59.468;18.040;2022-12-29T00:16:33;6.30;;;4.20;;
50379;SDS011;37474;59.468;18.040;2022-12-29T00:21:32;43.72;;;6.30;;
50379;SDS011;37474;59.468;18.040;2022-12-29T00:24:18;20.53;;;9.30;;
50379;SDS011;37474;59.468;18.040;2022-12-29T00:27:09;9.40;;;6.30;;
50379;SDS011;37474;59.468;18.040;2022-12-29T00:29:56;5.73;;;3.20;;
50379;SDS011;37474;59.468;18.040;2022-12-29T00:32:43;6.80;;;4.43;;
50379;SDS011;37474;59.468;18.040;2022-12-29T00:35:30;11.10;;;2.80;;
50379;SDS011;37474;59.468;18.040;2022-12-29T00:38:01;10.07;;;2.90;;
50379;SDS011;37474;59.468;18.040;2022-12-29T00:40:49;9.87;;;2.70;;
50379;SDS011;37474;59.468;18.040;2022-12-29T00:43:35;4.73;;;2.10;;
50379;SDS011;37474;59.468;18.040;2022-12-29T00:46:20;7.33;;;2.80;;
50379;SDS011;37474;59.468;18.040;2022-12-29T00:48:48;17.00;;;3.30;;
50379;SDS011;37474;59.468;18.040;2022-12-29T00:51:35;6.40;;;2.80;;
50379;SDS011;37474;59.468;18.040;2022-12-29T00:54:03;4.20;;;2.57;;
50379;SDS011;37474;59.468;18.040;2022-12-29T00:56:30;16.17;;;3.20;;
50379;SDS011;37474;59.468;18.040;2022-12-29T00:58:59;20.23;;;3.87;;
50379;SDS011;37474;59.468;18.040;2022-12-29T01:01:28;7.73;;;2.93;;
50379;SDS011;37474;59.468;18.040;2022-12-29T01:03:57;17.30;;;3.67;;
50379;SDS011;37474;59.468;18.040;2022-12-29T01:06:29;24.43;;;3.57;;
50379;SDS011;37474;59.468;18.040;2022-12-29T01:08:59;15.87;;;3.80;;
50379;SDS011;37474;59.468;18.040;2022-12-29T01:11:45;11.97;;;4.03;;
50379;SDS011;37474;59.468;18.040;2022-12-29T01:14:13;11.87;;;3.90;;
50379;SDS011;37474;59.468;18.040;2022-12-29T01:16:43;16.80;;;6.15;;
50379;SDS011;37474;59.468;18.040;2022-12-29T01:19:11;38.30;;;6.27;;
50379;SDS011;37474;59.468;18.040;2022-12-29T01:21:39;34.73;;;7.03;;
50379;SDS011;37474;59.468;18.040;2022-12-29T01:24:08;57.30;;;6.97;;
50379;SDS011;37474;59.468;18.040;2022-12-29T01:26:36;16.77;;;5.60;;
50379;SDS011;37474;59.468;18.040;2022-12-29T01:29:04;60.00;;;7.93;;
50379;SDS011;37474;59.468;18.040;2022-12-29T01:31:32;13.67;;;4.73;;
50379;SDS011;37474;59.468;18.040;2022-12-29T01:34:00;50.03;;;7.60;;
50379;SDS011;37474;59.468;18.040;2022-12-29T01:36:28;26.03;;;4.90;;
50379;SDS011;37474;59.468;18.040;2022-12-29T01:38:56;31.43;;;4.40;;
50379;SDS011;37474;59.468;18.040;2022-12-29T01:41:25;20.93;;;3.00;;
50379;SDS011;37474;59.468;18.040;2022-12-29T01:43:54;19.25;;;2.60;;
50379;SDS011;37474;59.468;18.040;2022-12-29T01:46:25;36.22;;;3.28;;
50379;SDS011;37474;59.468;18.040;2022-12-29T01:48:55;30.27;;;2.73;;
50379;SDS011;37474;59.468;18.040;2022-12-29T01:51:30;32.50;;;2.57;;
50379;SDS011;37474;59.468;18.040;2022-12-29T01:54:01;71.80;;;4.22;;
50379;SDS011;37474;59.468;18.040;2022-12-29T01:56:34;19.77;;;2.73;;
50379;SDS011;37474;59.468;18.040;2022-12-29T02:01:32;51.37;;;3.17;;
50379;SDS011;37474;59.468;18.040;2022-12-29T02:04:00;32.80;;;2.30;;
50379;SDS011;37474;59.468;18.040;2022-12-29T02:06:29;16.43;;;2.27;;
50379;SDS011;37474;59.468;18.040;2022-12-29T02:09:00;46.90;;;2.93;;
50379;SDS011;37474;59.468;18.040;2022-12-29T02:11:28;34.77;;;3.20;;
50379;SDS011;37474;59.468;18.040;2022-12-29T02:13:58;26.60;;;3.10;;
50379;SDS011;37474;59.468;18.040;2022-12-29T02:16:30;26.70;;;2.60;;
50379;SDS011;37474;59.468;18.040;2022-12-29T02:19:15;18.67;;;2.40;;
50379;SDS011;37474;59.468;18.040;2022-12-29T02:22:10;28.80;;;3.05;;
50379;SDS011;37474;59.468;18.040;2022-12-29T02:24:52;21.85;;;2.53;;
50379;SDS011;37474;59.468;18.040;2022-12-29T02:27:52;34.67;;;3.23;;
50379;SDS011;37474;59.468;18.040;2022-12-29T02:30:42;16.60;;;3.10;;
50379;SDS011;37474;59.468;18.040;2022-12-29T02:33:20;13.87;;;3.23;;
50379;SDS011;37474;59.468;18.040;2022-12-29T02:35:58;11.93;;;3.13;;
50379;SDS011;37474;59.468;18.040;2022-12-29T02:38:38;13.47;;;3.30;;
50379;SDS011;37474;59.468;18.040;2022-12-29T02:41:18;9.97;;;3.40;;
50379;SDS011;37474;59.468;18.040;2022-12-29T02:43:50;14.50;;;3.57;;
50379;SDS011;37474;59.468;18.040;2022-12-29T02:46:27;14.27;;;3.63;;
50379;SDS011;37474;59.468;18.040;2022-12-29T02:49:03;14.50;;;4.07;;
50379;SDS011;37474;59.468;18.040;2022-12-29T02:51:38;21.33;;;3.80;;
50379;SDS011;37474;59.468;18.040;2022-12-29T02:54:11;11.87;;;3.43;;
50379;SDS011;37474;59.468;18.040;2022-12-29T02:56:57;14.67;;;3.80;;
50379;SDS011;37474;59.468;18.040;2022-12-29T02:59:24;40.67;;;4.73;;
50379;SDS011;37474;59.468;18.040;2022-12-29T03:02:01;20.30;;;4.40;;
50379;SDS011;37474;59.468;18.040;2022-12-29T03:04:48;21.37;;;4.13;;
50379;SDS011;37474;59.468;18.040;2022-12-29T03:07:34;10.17;;;3.63;;
50379;SDS011;37474;59.468;18.040;2022-12-29T03:10:11;14.30;;;4.33;;
50379;SDS011;37474;59.468;18.040;2022-12-29T03:12:48;14.97;;;4.80;;
50379;SDS011;37474;59.468;18.040;2022-12-29T03:15:42;8.97;;;4.00;;
50379;SDS011;37474;59.468;18.040;2022-12-29T03:18:34;10.40;;;4.20;;
50379;SDS011;37474;59.468;18.040;2022-12-29T03:21:12;10.07;;;4.33;;
50379;SDS011;37474;59.468;18.040;2022-12-29T03:23:44;12.00;;;4.80;;
50379;SDS011;37474;59.468;18.040;2022-12-29T03:26:16;12.60;;;6.03;;
50379;SDS011;37474;59.468;18.040;2022-12-29T03:28:47;9.40;;;4.67;;
50379;SDS011;37474;59.468;18.040;2022-12-29T03:31:19;7.60;;;4.47;;
50379;SDS011;37474;59.468;18.040;2022-12-29T03:33:52;10.83;;;5.20;;
50379;SDS011;37474;59.468;18.040;2022-12-29T03:38:59;10.10;;;5.03;;
50379;SDS011;37474;59.468;18.040;2022-12-29T03:41:31;9.63;;;5.67;;
50379;SDS011;37474;59.468;18.040;2022-12-29T03:44:01;14.75;;;6.30;;
50379;SDS011;37474;59.468;18.040;2022-12-29T03:46:29;13.80;;;6.37;;
50379;SDS011;37474;59.468;18.040;2022-12-29T03:48:58;13.37;;;5.73;;
50379;SDS011;37474;59.468;18.040;2022-12-29T03:51:26;14.03;;;5.73;;
50379;SDS011;37474;59.468;18.040;2022-12-29T03:53:54;15.77;;;6.90;;
50379;SDS011;37474;59.468;18.040;2022-12-29T03:56:21;14.07;;;6.10;;
50379;SDS011;37474;59.468;18.040;2022-12-29T03:58:49;13.03;;;6.63;;
50379;SDS011;37474;59.468;18.040;2022-12-29T04:01:17;10.37;;;5.73;;
50379;SDS011;37474;59.468;18.040;2022-12-29T04:03:45;16.13;;;6.40;;
50379;SDS011;37474;59.468;18.040;2022-12-29T04:06:14;16.00;;;6.43;;
50379;SDS011;37474;59.468;18.040;2022-12-29T04:08:42;13.60;;;6.10;;
50379;SDS011;37474;59.468;18.040;2022-12-29T04:11:10;19.60;;;7.03;;
50379;SDS011;37474;59.468;18.040;2022-12-29T04:13:38;10.77;;;6.20;;
50379;SDS011;37474;59.468;18.040;2022-12-29T04:16:07;12.50;;;6.70;;
50379;SDS011;37474;59.468;18.040;2022-12-29T04:18:35;14.87;;;6.73;;
50379;SDS011;37474;59.468;18.040;2022-12-29T04:21:03;18.70;;;7.30;;
50379;SDS011;37474;59.468;18.040;2022-12-29T04:23:34;10.90;;;5.70;;
50379;SDS011;37474;59.468;18.040;2022-12-29T04:26:04;15.10;;;5.90;;
50379;SDS011;37474;59.468;18.040;2022-12-29T04:28:33;13.52;;;6.22;;
50379;SDS011;37474;59.468;18.040;2022-12-29T04:31:02;15.47;;;6.57;;
50379;SDS011;37474;59.468;18.040;2022-12-29T04:33:30;12.53;;;6.33;;
50379;SDS011;37474;59.468;18.040;2022-12-29T04:35:59;13.63;;;6.63;;
50379;SDS011;37474;59.468;18.040;2022-12-29T04:38:27;14.93;;;7.40;;
50379;SDS011;37474;59.468;18.040;2022-12-29T04:40:58;12.97;;;7.00;;
50379;SDS011;37474;59.468;18.040;2022-12-29T04:43:27;10.27;;;6.80;;
50379;SDS011;37474;59.468;18.040;2022-12-29T04:45:55;14.17;;;7.17;;
50379;SDS011;37474;59.468;18.040;2022-12-29T04:48:23;13.97;;;6.77;;
50379;SDS011;37474;59.468;18.040;2022-12-29T04:50:50;17.13;;;7.93;;
50379;SDS011;37474;59.468;18.040;2022-12-29T04:53:18;14.17;;;6.73;;
50379;SDS011;37474;59.468;18.040;2022-12-29T04:55:48;16.73;;;7.50;;
50379;SDS011;37474;59.468;18.040;2022-12-29T04:58:18;14.00;;;7.17;;
50379;SDS011;37474;59.468;18.040;2022-12-29T05:00:49;12.77;;;7.17;;
50379;SDS011;37474;59.468;18.040;2022-12-29T05:03:17;13.77;;;7.00;;
50379;SDS011;37474;59.468;18.040;2022-12-29T05:05:46;13.77;;;8.00;;
50379;SDS011;37474;59.468;18.040;2022-12-29T05:08:14;16.17;;;8.33;;
50379;SDS011;37474;59.468;18.040;2022-12-29T05:10:44;16.43;;;8.50;;
50379;SDS011;37474;59.468;18.040;2022-12-29T05:13:12;12.68;;;7.55;;
50379;SDS011;37474;59.468;18.040;2022-12-29T05:15:41;16.10;;;7.03;;
50379;SDS011;37474;59.468;18.040;2022-12-29T05:18:14;15.30;;;7.03;;
50379;SDS011;37474;59.468;18.040;2022-12-29T05:20:43;12.67;;;7.60;;
50379;SDS011;37474;59.468;18.040;2022-12-29T05:23:11;19.57;;;7.20;;
50379;SDS011;37474;59.468;18.040;2022-12-29T05:25:39;13.47;;;7.97;;
50379;SDS011;37474;59.468;18.040;2022-12-29T05:28:07;12.57;;;7.23;;
50379;SDS011;37474;59.468;18.040;2022-12-29T05:30:34;16.60;;;7.37;;
50379;SDS011;37474;59.468;18.040;2022-12-29T05:33:04;14.57;;;6.90;;
50379;SDS011;37474;59.468;18.040;2022-12-29T05:35:32;11.65;;;6.88;;
50379;SDS011;37474;59.468;18.040;2022-12-29T05:38:00;12.60;;;7.17;;
50379;SDS011;37474;59.468;18.040;2022-12-29T05:40:28;9.97;;;6.17;;
50379;SDS011;37474;59.468;18.040;2022-12-29T05:42:56;13.27;;;7.37;;
50379;SDS011;37474;59.468;18.040;2022-12-29T05:45:24;12.50;;;6.30;;
50379;SDS011;37474;59.468;18.040;2022-12-29T05:47:52;14.27;;;6.67;;
50379;SDS011;37474;59.468;18.040;2022-12-29T05:50:21;12.60;;;6.80;;
50379;SDS011;37474;59.468;18.040;2022-12-29T05:52:49;9.60;;;5.77;;
50379;SDS011;37474;59.468;18.040;2022-12-29T05:55:17;12.33;;;6.47;;
50379;SDS011;37474;59.468;18.040;2022-12-29T05:57:45;10.53;;;5.87;;
50379;SDS011;37474;59.468;18.040;2022-12-29T06:00:13;9.97;;;5.37;;
50379;SDS011;37474;59.468;18.040;2022-12-29T06:02:42;10.13;;;5.77;;
50379;SDS011;37474;59.468;18.040;2022-12-29T06:05:10;7.43;;;5.37;;
50379;SDS011;37474;59.468;18.040;2022-12-29T06:07:39;10.60;;;5.37;;
50379;SDS011;37474;59.468;18.040;2022-12-29T06:10:07;9.77;;;5.63;;
50379;SDS011;37474;59.468;18.040;2022-12-29T06:12:35;10.37;;;4.93;;
50379;SDS011;37474;59.468;18.040;2022-12-29T06:15:03;10.53;;;6.00;;
50379;SDS011;37474;59.468;18.040;2022-12-29T06:17:32;8.60;;;5.17;;
50379;SDS011;37474;59.468;18.040;2022-12-29T06:20:00;11.37;;;5.43;;
50379;SDS011;37474;59.468;18.040;2022-12-29T06:22:28;8.50;;;5.30;;
50379;SDS011;37474;59.468;18.040;2022-12-29T06:24:57;11.00;;;5.50;;
50379;SDS011;37474;59.468;18.040;2022-12-29T06:27:30;11.27;;;5.50;;
50379;SDS011;37474;59.468;18.040;2022-12-29T06:29:59;10.90;;;5.33;;
50379;SDS011;37474;59.468;18.040;2022-12-29T06:32:27;9.37;;;5.37;;
50379;SDS011;37474;59.468;18.040;2022-12-29T06:34:55;9.27;;;5.53;;
50379;SDS011;37474;59.468;18.040;2022-12-29T06:37:22;13.70;;;5.23;;
50379;SDS011;37474;59.468;18.040;2022-12-29T06:39:50;11.60;;;5.43;;
50379;SDS011;37474;59.468;18.040;2022-12-29T06:42:19;10.20;;;5.40;;
50379;SDS011;37474;59.468;18.040;2022-12-29T06:44:47;11.07;;;5.40;;
50379;SDS011;37474;59.468;18.040;2022-12-29T06:47:15;6.87;;;4.83;;
50379;SDS011;37474;59.468;18.040;2022-12-29T06:49:43;8.67;;;4.97;;
50379;SDS011;37474;59.468;18.040;2022-12-29T06:52:12;9.33;;;5.23;;
50379;SDS011;37474;59.468;18.040;2022-12-29T06:54:39;9.63;;;5.60;;
50379;SDS011;37474;59.468;18.040;2022-12-29T06:57:07;13.13;;;5.57;;
50379;SDS011;37474;59.468;18.040;2022-12-29T06:59:36;15.07;;;5.70;;
50379;SDS011;37474;59.468;18.040;2022-12-29T07:02:04;13.20;;;5.53;;
50379;SDS011;37474;59.468;18.040;2022-12-29T07:04:33;10.70;;;5.80;;
50379;SDS011;37474;59.468;18.040;2022-12-29T07:07:00;13.67;;;6.20;;
50379;SDS011;37474;59.468;18.040;2022-12-29T07:09:28;14.97;;;6.90;;
50379;SDS011;37474;59.468;18.040;2022-12-29T07:11:56;15.43;;;6.43;;
50379;SDS011;37474;59.468;18.040;2022-12-29T07:14:24;13.70;;;6.80;;
50379;SDS011;37474;59.468;18.040;2022-12-29T07:16:53;15.40;;;6.47;;
50379;SDS011;37474;59.468;18.040;2022-12-29T07:19:21;16.47;;;6.70;;
50379;SDS011;37474;59.468;18.040;2022-12-29T07:21:49;19.13;;;7.83;;
50379;SDS011;37474;59.468;18.040;2022-12-29T07:24:17;20.20;;;8.00;;
50379;SDS011;37474;59.468;18.040;2022-12-29T07:26:44;20.53;;;8.20;;
50379;SDS011;37474;59.468;18.040;2022-12-29T07:29:12;23.83;;;8.47;;
50379;SDS011;37474;59.468;18.040;2022-12-29T07:31:40;20.73;;;8.97;;
50379;SDS011;37474;59.468;18.040;2022-12-29T07:34:09;26.67;;;9.10;;
50379;SDS011;37474;59.468;18.040;2022-12-29T07:36:37;27.73;;;9.67;;
50379;SDS011;37474;59.468;18.040;2022-12-29T07:39:05;24.20;;;9.67;;
50379;SDS011;37474;59.468;18.040;2022-12-29T07:41:33;26.43;;;9.53;;
50379;SDS011;37474;59.468;18.040;2022-12-29T07:44:00;25.90;;;9.87;;
50379;SDS011;37474;59.468;18.040;2022-12-29T07:46:28;40.83;;;10.67;;
50379;SDS011;37474;59.468;18.040;2022-12-29T07:49:17;40.27;;;9.77;;
50379;SDS011;37474;59.468;18.040;2022-12-29T07:51:45;33.60;;;10.17;;
50379;SDS011;37474;59.468;18.040;2022-12-29T07:54:13;23.43;;;9.73;;
50379;SDS011;37474;59.468;18.040;2022-12-29T07:56:44;28.20;;;10.90;;
50379;SDS011;37474;59.468;18.040;2022-12-29T07:59:12;34.80;;;9.07;;
50379;SDS011;37474;59.468;18.040;2022-12-29T08:01:39;29.57;;;9.57;;
50379;SDS011;37474;59.468;18.040;2022-12-29T08:04:08;34.43;;;10.03;;
50379;SDS011;37474;59.468;18.040;2022-12-29T08:06:37;34.00;;;10.70;;
50379;SDS011;37474;59.468;18.040;2022-12-29T08:09:05;33.40;;;10.37;;
50379;SDS011;37474;59.468;18.040;2022-12-29T08:11:43;22.67;;;9.13;;
50379;SDS011;37474;59.468;18.040;2022-12-29T08:14:11;28.33;;;9.43;;
50379;SDS011;37474;59.468;18.040;2022-12-29T08:16:39;18.33;;;9.63;;
50379;SDS011;37474;59.468;18.040;2022-12-29T08:19:06;25.87;;;10.40;;
50379;SDS011;37474;59.468;18.040;2022-12-29T08:21:34;36.93;;;10.10;;
50379;SDS011;37474;59.468;18.040;2022-12-29T08:24:03;27.57;;;11.70;;
50379;SDS011;37474;59.468;18.040;2022-12-29T08:26:32;29.70;;;10.20;;
50379;SDS011;37474;59.468;18.040;2022-12-29T08:29:00;24.43;;;9.30;;
50379;SDS011;37474;59.468;18.040;2022-12-29T08:31:28;21.57;;;9.83;;
50379;SDS011;37474;59.468;18.040;2022-12-29T08:33:56;25.43;;;9.30;;
50379;SDS011;37474;59.468;18.040;2022-12-29T08:36:23;21.23;;;9.23;;
50379;SDS011;37474;59.468;18.040;2022-12-29T08:38:51;22.17;;;9.43;;
50379;SDS011;37474;59.468;18.040;2022-12-29T08:41:20;25.13;;;9.77;;
50379;SDS011;37474;59.468;18.040;2022-12-29T08:43:49;23.53;;;10.10;;
50379;SDS011;37474;59.468;18.040;2022-12-29T08:46:17;29.90;;;10.87;;
50379;SDS011;37474;59.468;18.040;2022-12-29T08:48:45;25.63;;;10.60;;
50379;SDS011;37474;59.468;18.040;2022-12-29T08:51:13;19.80;;;10.03;;
50379;SDS011;37474;59.468;18.040;2022-12-29T08:53:48;23.10;;;10.77;;
50379;SDS011;37474;59.468;18.040;2022-12-29T08:56:16;19.83;;;9.83;;
50379;SDS011;37474;59.468;18.040;2022-12-29T08:58:46;23.60;;;10.63;;
50379;SDS011;37474;59.468;18.040;2022-12-29T09:01:14;31.03;;;11.60;;
50379;SDS011;37474;59.468;18.040;2022-12-29T09:03:41;27.43;;;10.60;;
50379;SDS011;37474;59.468;18.040;2022-12-29T09:06:29;29.37;;;11.63;;
50379;SDS011;37474;59.468;18.040;2022-12-29T09:09:05;26.80;;;10.73;;
50379;SDS011;37474;59.468;18.040;2022-12-29T09:11:33;25.53;;;11.30;;
50379;SDS011;37474;59.468;18.040;2022-12-29T09:14:02;20.23;;;10.20;;
50379;SDS011;37474;59.468;18.040;2022-12-29T09:16:30;22.80;;;10.50;;
50379;SDS011;37474;59.468;18.040;2022-12-29T09:18:58;19.47;;;9.50;;
50379;SDS011;37474;59.468;18.040;2022-12-29T09:21:26;18.47;;;9.20;;
50379;SDS011;37474;59.468;18.040;2022-12-29T09:23:53;15.70;;;8.53;;
50379;SDS011;37474;59.468;18.040;2022-12-29T09:26:21;15.40;;;8.40;;
50379;SDS011;37474;59.468;18.040;2022-12-29T09:28:49;13.80;;;8.47;;
50379;SDS011;37474;59.468;18.040;2022-12-29T09:31:18;11.83;;;7.37;;
50379;SDS011;37474;59.468;18.040;2022-12-29T09:33:46;12.40;;;6.70;;
50379;SDS011;37474;59.468;18.040;2022-12-29T09:36:14;13.87;;;8.03;;
50379;SDS011;37474;59.468;18.040;2022-12-29T09:38:42;11.70;;;6.10;;
50379;SDS011;37474;59.468;18.040;2022-12-29T09:41:11;14.90;;;8.93;;
50379;SDS011;37474;59.468;18.040;2022-12-29T09:43:46;12.53;;;7.30;;
50379;SDS011;37474;59.468;18.040;2022-12-29T09:46:26;12.20;;;5.53;;
50379;SDS011;37474;59.468;18.040;2022-12-29T09:49:00;7.67;;;4.97;;
50379;SDS011;37474;59.468;18.040;2022-12-29T09:51:35;8.13;;;4.90;;
50379;SDS011;37474;59.468;18.040;2022-12-29T09:54:13;8.07;;;5.75;;
50379;SDS011;37474;59.468;18.040;2022-12-29T09:57:02;5.70;;;3.63;;
50379;SDS011;37474;59.468;18.040;2022-12-29T09:59:33;5.37;;;2.93;;
50379;SDS011;37474;59.468;18.040;2022-12-29T10:02:14;4.50;;;2.50;;
50379;SDS011;37474;59.468;18.040;2022-12-29T10:04:50;4.53;;;2.73;;
50379;SDS011;37474;59.468;18.040;2022-12-29T10:07:23;4.87;;;2.80;;
50379;SDS011;37474;59.468;18.040;2022-12-29T10:10:03;5.47;;;2.40;;
50379;SDS011;37474;59.468;18.040;2022-12-29T10:12:53;3.90;;;2.27;;
50379;SDS011;37474;59.468;18.040;2022-12-29T10:15:38;3.50;;;2.80;;
50379;SDS011;37474;59.468;18.040;2022-12-29T10:18:18;3.33;;;2.50;;
50379;SDS011;37474;59.468;18.040;2022-12-29T10:20:53;6.68;;;3.17;;
50379;SDS011;37474;59.468;18.040;2022-12-29T10:23:28;4.97;;;2.90;;
50379;SDS011;37474;59.468;18.040;2022-12-29T10:25:59;4.53;;;3.00;;
50379;SDS011;37474;59.468;18.040;2022-12-29T10:28:33;5.30;;;2.95;;
50379;SDS011;37474;59.468;18.040;2022-12-29T10:31:05;5.73;;;3.93;;
50379;SDS011;37474;59.468;18.040;2022-12-29T10:33:41;6.50;;;4.63;;
50379;SDS011;37474;59.468;18.040;2022-12-29T10:36:12;7.27;;;4.40;;
50379;SDS011;37474;59.468;18.040;2022-12-29T10:38:45;13.97;;;6.60;;
50379;SDS011;37474;59.468;18.040;2022-12-29T10:41:21;6.73;;;4.30;;
50379;SDS011;37474;59.468;18.040;2022-12-29T10:43:54;7.37;;;4.50;;
50379;SDS011;37474;59.468;18.040;2022-12-29T10:46:25;6.00;;;4.13;;
50379;SDS011;37474;59.468;18.040;2022-12-29T10:48:58;4.57;;;3.73;;
50379;SDS011;37474;59.468;18.040;2022-12-29T10:51:27;12.75;;;4.30;;
50379;SDS011;37474;59.468;18.040;2022-12-29T10:53:59;7.60;;;4.80;;
50379;SDS011;37474;59.468;18.040;2022-12-29T10:56:32;8.83;;;5.00;;
50379;SDS011;37474;59.468;18.040;2022-12-29T10:59:03;8.07;;;4.40;;
50379;SDS011;37474;59.468;18.040;2022-12-29T11:01:39;6.30;;;3.97;;
50379;SDS011;37474;59.468;18.040;2022-12-29T11:04:20;7.63;;;3.67;;
50379;SDS011;37474;59.468;18.040;2022-12-29T11:07:00;6.87;;;3.50;;
50379;SDS011;37474;59.468;18.040;2022-12-29T11:09:29;5.47;;;3.50;;
50379;SDS011;37474;59.468;18.040;2022-12-29T11:12:18;4.57;;;3.22;;
50379;SDS011;37474;59.468;18.040;2022-12-29T11:14:48;6.35;;;3.72;;
50379;SDS011;37474;59.468;18.040;2022-12-29T11:17:29;5.97;;;3.23;;
50379;SDS011;37474;59.468;18.040;2022-12-29T11:19:58;5.63;;;3.37;;
50379;SDS011;37474;59.468;18.040;2022-12-29T11:22:27;5.70;;;3.00;;
50379;SDS011;37474;59.468;18.040;2022-12-29T11:25:04;4.07;;;3.05;;
50379;SDS011;37474;59.468;18.040;2022-12-29T11:27:38;4.33;;;2.67;;
50379;SDS011;37474;59.468;18.040;2022-12-29T11:30:12;4.47;;;2.70;;
50379;SDS011;37474;59.468;18.040;2022-12-29T11:32:50;4.43;;;3.10;;
50379;SDS011;37474;59.468;18.040;2022-12-29T11:35:30;5.85;;;3.30;;
50379;SDS011;37474;59.468;18.040;2022-12-29T11:38:00;3.45;;;2.83;;
50379;SDS011;37474;59.468;18.040;2022-12-29T11:40:29;5.10;;;2.63;;
50379;SDS011;37474;59.468;18.040;2022-12-29T11:43:00;2.95;;;2.45;;
50379;SDS011;37474;59.468;18.040;2022-12-29T11:45:30;2.53;;;2.20;;
50379;SDS011;37474;59.468;18.040;2022-12-29T11:48:01;5.23;;;2.07;;
50379;SDS011;37474;59.468;18.040;2022-12-29T11:50:36;5.97;;;2.43;;
50379;SDS011;37474;59.468;18.040;2022-12-29T11:53:07;2.97;;;2.40;;
50379;SDS011;37474;59.468;18.040;2022-12-29T11:55:50;2.33;;;2.13;;
50379;SDS011;37474;59.468;18.040;2022-12-29T11:58:20;3.43;;;2.30;;
50379;SDS011;37474;59.468;18.040;2022-12-29T12:00:48;4.87;;;3.33;;
50379;SDS011;37474;59.468;18.040;2022-12-29T12:03:18;4.13;;;3.43;;
50379;SDS011;37474;59.468;18.040;2022-12-29T12:05:50;6.97;;;3.77;;
50379;SDS011;37474;59.468;18.040;2022-12-29T12:08:23;4.03;;;2.63;;
50379;SDS011;37474;59.468;18.040;2022-12-29T12:11:04;5.03;;;3.60;;
50379;SDS011;37474;59.468;18.040;2022-12-29T12:13:37;3.70;;;2.87;;
50379;SDS011;37474;59.468;18.040;2022-12-29T12:16:11;4.53;;;2.80;;
50379;SDS011;37474;59.468;18.040;2022-12-29T12:18:44;3.00;;;2.40;;
50379;SDS011;37474;59.468;18.040;2022-12-29T12:21:18;2.73;;;2.20;;
50379;SDS011;37474;59.468;18.040;2022-12-29T12:24:02;4.60;;;2.37;;
50379;SDS011;37474;59.468;18.040;2022-12-29T12:26:47;3.23;;;2.27;;
50379;SDS011;37474;59.468;18.040;2022-12-29T12:29:24;4.23;;;2.70;;
50379;SDS011;37474;59.468;18.040;2022-12-29T12:32:01;3.90;;;3.13;;
50379;SDS011;37474;59.468;18.040;2022-12-29T12:34:38;2.50;;;2.20;;
50379;SDS011;37474;59.468;18.040;2022-12-29T12:37:18;3.17;;;2.40;;
50379;SDS011;37474;59.468;18.040;2022-12-29T12:40:14;3.50;;;2.97;;
50379;SDS011;37474;59.468;18.040;2022-12-29T12:42:56;4.30;;;2.80;;
50379;SDS011;37474;59.468;18.040;2022-12-29T12:45:36;2.90;;;2.47;;
50379;SDS011;37474;59.468;18.040;2022-12-29T12:48:19;3.53;;;2.50;;
50379;SDS011;37474;59.468;18.040;2022-12-29T12:51:06;4.33;;;2.70;;
50379;SDS011;37474;59.468;18.040;2022-12-29T12:53:48;3.13;;;2.83;;
50379;SDS011;37474;59.468;18.040;2022-12-29T12:59:16;3.80;;;3.03;;
50379;SDS011;37474;59.468;18.040;2022-12-29T13:01:59;2.87;;;2.47;;
50379;SDS011;37474;59.468;18.040;2022-12-29T13:07:33;3.37;;;2.50;;
50379;SDS011;37474;59.468;18.040;2022-12-29T13:10:21;3.20;;;2.70;;
50379;SDS011;37474;59.468;18.040;2022-12-29T13:13:01;4.53;;;3.20;;
50379;SDS011;37474;59.468;18.040;2022-12-29T13:15:53;9.87;;;5.23;;
50379;SDS011;37474;59.468;18.040;2022-12-29T13:18:42;7.80;;;5.00;;
50379;SDS011;37474;59.468;18.040;2022-12-29T13:21:20;8.50;;;4.23;;
50379;SDS011;37474;59.468;18.040;2022-12-29T13:23:59;6.00;;;5.00;;
50379;SDS011;37474;59.468;18.040;2022-12-29T13:26:35;4.47;;;3.90;;
50379;SDS011;37474;59.468;18.040;2022-12-29T13:29:10;5.23;;;3.80;;
50379;SDS011;37474;59.468;18.040;2022-12-29T13:31:53;3.93;;;3.50;;
50379;SDS011;37474;59.468;18.040;2022-12-29T13:34:32;4.13;;;3.60;;
50379;SDS011;37474;59.468;18.040;2022-12-29T13:37:12;6.60;;;3.47;;
50379;SDS011;37474;59.468;18.040;2022-12-29T13:39:59;5.30;;;3.63;;
50379;SDS011;37474;59.468;18.040;2022-12-29T13:42:32;4.47;;;3.67;;
50379;SDS011;37474;59.468;18.040;2022-12-29T13:45:02;5.43;;;3.77;;
50379;SDS011;37474;59.468;18.040;2022-12-29T13:47:34;6.00;;;4.10;;
50379;SDS011;37474;59.468;18.040;2022-12-29T13:50:06;5.17;;;3.67;;
50379;SDS011;37474;59.468;18.040;2022-12-29T13:52:43;5.83;;;4.17;;
50379;SDS011;37474;59.468;18.040;2022-12-29T13:55:21;5.00;;;3.93;;
50379;SDS011;37474;59.468;18.040;2022-12-29T13:57:57;5.77;;;4.60;;
50379;SDS011;37474;59.468;18.040;2022-12-29T14:00:39;6.83;;;3.87;;
50379;SDS011;37474;59.468;18.040;2022-12-29T14:03:19;7.00;;;4.10;;
50379;SDS011;37474;59.468;18.040;2022-12-29T14:06:03;8.27;;;5.00;;
50379;SDS011;37474;59.468;18.040;2022-12-29T14:08:39;9.57;;;5.60;;
50379;SDS011;37474;59.468;18.040;2022-12-29T14:11:08;7.67;;;5.67;;
50379;SDS011;37474;59.468;18.040;2022-12-29T14:16:08;6.10;;;4.05;;
50379;SDS011;37474;59.468;18.040;2022-12-29T14:18:49;5.30;;;3.87;;
50379;SDS011;37474;59.468;18.040;2022-12-29T14:21:19;6.17;;;4.00;;
50379;SDS011;37474;59.468;18.040;2022-12-29T14:33:13;3.80;;;3.30;;
50379;SDS011;37474;59.468;18.040;2022-12-29T14:35:42;6.67;;;3.77;;
50379;SDS011;37474;59.468;18.040;2022-12-29T14:38:16;4.63;;;3.00;;
50379;SDS011;37474;59.468;18.040;2022-12-29T14:40:46;3.33;;;3.00;;
50379;SDS011;37474;59.468;18.040;2022-12-29T14:43:25;6.30;;;3.27;;
50379;SDS011;37474;59.468;18.040;2022-12-29T14:45:55;8.77;;;5.00;;
50379;SDS011;37474;59.468;18.040;2022-12-29T14:51:28;6.90;;;3.57;;
50379;SDS011;37474;59.468;18.040;2022-12-29T14:53:59;6.00;;;5.10;;
50379;SDS011;37474;59.468;18.040;2022-12-29T14:56:27;7.47;;;4.80;;
50379;SDS011;37474;59.468;18.040;2022-12-29T14:58:58;9.37;;;6.07;;
50379;SDS011;37474;59.468;18.040;2022-12-29T15:01:34;7.67;;;5.87;;
50379;SDS011;37474;59.468;18.040;2022-12-29T15:04:15;8.27;;;6.90;;
50379;SDS011;37474;59.468;18.040;2022-12-29T15:06:45;8.00;;;5.70;;
50379;SDS011;37474;59.468;18.040;2022-12-29T15:09:22;6.93;;;5.90;;
50379;SDS011;37474;59.468;18.040;2022-12-29T15:11:56;9.40;;;6.40;;
50379;SDS011;37474;59.468;18.040;2022-12-29T15:14:30;9.80;;;7.50;;
50379;SDS011;37474;59.468;18.040;2022-12-29T15:17:00;10.53;;;7.93;;
50379;SDS011;37474;59.468;18.040;2022-12-29T15:22:20;12.07;;;8.97;;
50379;SDS011;37474;59.468;18.040;2022-12-29T15:24:49;15.43;;;9.20;;
50379;SDS011;37474;59.468;18.040;2022-12-29T15:27:19;14.27;;;9.37;;
50379;SDS011;37474;59.468;18.040;2022-12-29T15:29:55;13.95;;;8.57;;